Time;durP1;ratioP1;P1;durP2;ratioP2;P2;SDS_P1;SDS_P2;PMS_P1;PMS_P2;Temp;Humidity;BMP_temperature;BMP_pressure;BME280_temperature;BME280_humidity;BME280_pressure;Samples;Min_cycle;Max_cycle;Signal;HPM_P1;HPM_P2
2022/12/10 00:01:18;;;;;;;0.93;0.73;;;;;;;-144.99;100.00;67352.69;5050087;28;20438;-72
2022/12/10 00:03:44;;;;;;;2.07;1.00;;;;;;;-144.99;100.00;67352.69;5050029;28;20920;-72
2022/12/10 00:06:15;;;;;;;11.93;7.43;;;;;;;-144.99;100.00;67352.69;5050141;28;20774;-72
2022/12/10 00:08:41;;;;;;;0.63;0.63;;;;;;;-144.99;100.00;67352.69;5050403;28;20410;-72
2022/12/10 00:11:08;;;;;;;9.73;4.57;;;;;;;-144.99;100.00;67352.69;5050093;28;20425;-72
2022/12/10 00:13:35;;;;;;;13.07;6.70;;;;;;;-144.99;100.00;67352.69;5049779;28;20198;-72
2022/12/10 00:16:01;;;;;;;14.30;2.33;;;;;;;-144.99;100.00;67352.69;5050127;28;20414;-72
2022/12/10 00:18:27;;;;;;;11.37;10.27;;;;;;;-144.99;100.00;67352.69;5050026;28;20483;-72
2022/12/10 00:20:52;;;;;;;17.23;6.70;;;;;;;-144.99;100.00;67352.69;5050036;28;20424;-72
2022/12/10 00:23:18;;;;;;;6.17;4.23;;;;;;;-144.99;100.00;67352.69;5051751;28;20532;-72
2022/12/10 00:25:43;;;;;;;3.83;3.40;;;;;;;-144.99;100.00;67352.69;5035377;28;20654;-72
2022/12/10 00:28:09;;;;;;;15.37;5.07;;;;;;;-144.99;100.00;67352.69;5053686;28;20650;-71
2022/12/10 00:30:34;;;;;;;1.90;1.80;;;;;;;-144.99;100.00;67352.69;5053640;28;20645;-72
2022/12/10 00:32:59;;;;;;;0.90;0.90;;;;;;;-144.99;100.00;67352.69;5053469;28;20873;-71
2022/12/10 00:35:25;;;;;;;1.87;1.83;;;;;;;-144.99;100.00;67352.69;5053557;28;20639;-71
2022/12/10 00:37:50;;;;;;;2.50;2.30;;;;;;;-144.99;100.00;67352.69;5053802;28;20207;-72
2022/12/10 00:40:15;;;;;;;6.37;5.10;;;;;;;-144.99;100.00;67352.69;5053791;28;20198;-72
2022/12/10 00:42:41;;;;;;;10.20;4.40;;;;;;;-144.99;100.00;67352.69;5053367;28;20182;-72
2022/12/10 00:45:06;;;;;;;2.17;2.07;;;;;;;-144.99;100.00;67352.69;5053390;28;20177;-72
2022/12/10 00:47:32;;;;;;;2.10;1.93;;;;;;;-144.99;100.00;67352.69;5053369;28;20536;-72
2022/12/10 00:49:57;;;;;;;2.30;1.80;;;;;;;-144.99;100.00;67352.69;5053250;28;20179;-72
2022/12/10 00:52:22;;;;;;;1.73;0.63;;;;;;;-144.99;100.00;67352.69;5053371;28;20172;-72
2022/12/10 00:54:47;;;;;;;2.90;2.70;;;;;;;-144.99;100.00;67352.69;5052850;28;20202;-72
2022/12/10 00:57:13;;;;;;;1.70;1.70;;;;;;;-144.99;100.00;67352.69;5053013;28;20215;-72
2022/12/10 00:59:38;;;;;;;6.40;4.60;;;;;;;-144.99;100.00;67352.69;5053158;28;20171;-72
2022/12/10 01:02:03;;;;;;;3.07;2.83;;;;;;;-144.99;100.00;67352.69;5053020;28;20533;-72
2022/12/10 01:04:29;;;;;;;1.23;1.23;;;;;;;-144.99;100.00;67352.69;5052629;28;20175;-71
2022/12/10 01:06:54;;;;;;;12.90;10.27;;;;;;;-144.99;100.00;67352.69;5052897;28;20712;-71
2022/12/10 01:09:24;;;;;;;0.30;0.30;;;;;;;-144.99;100.00;67352.69;5052933;28;20171;-72
2022/12/10 01:11:50;;;;;;;14.13;4.03;;;;;;;-144.99;100.00;67352.69;5052846;28;20254;-72
2022/12/10 01:14:20;;;;;;;0.77;0.77;;;;;;;-144.99;100.00;67352.69;5052562;28;20426;-72
2022/12/10 01:16:46;;;;;;;4.30;2.90;;;;;;;-144.99;100.00;67352.69;5052614;28;20556;-71
2022/12/10 01:19:11;;;;;;;0.43;0.43;;;;;;;-144.99;100.00;67352.69;5052529;28;21005;-72
2022/12/10 01:21:37;;;;;;;3.30;2.00;;;;;;;-144.99;100.00;67352.69;5052701;28;20176;-71
2022/12/10 01:24:03;;;;;;;3.93;1.40;;;;;;;-144.99;100.00;67352.69;5052465;28;20262;-72
2022/12/10 01:26:31;;;;;;;6.77;1.80;;;;;;;-144.99;100.00;67352.69;5052426;28;20179;-73
2022/12/10 01:28:57;;;;;;;13.57;3.80;;;;;;;-144.99;100.00;67352.69;5052539;28;20186;-72
2022/12/10 01:31:30;;;;;;;0.20;0.20;;;;;;;-144.99;100.00;67352.69;5052486;28;20414;-72
2022/12/10 01:33:57;;;;;;;2.40;2.30;;;;;;;-144.99;100.00;67352.69;5051868;28;20429;-72
2022/12/10 01:36:26;;;;;;;0.00;0.00;;;;;;;-144.99;100.00;67352.69;5034377;28;20437;-72
2022/12/10 01:38:52;;;;;;;1.67;1.63;;;;;;;-144.99;100.00;67352.69;5052389;28;20444;-72
2022/12/10 01:41:23;;;;;;;12.37;5.67;;;;;;;-144.99;100.00;67352.69;5052360;28;20969;-72
2022/12/10 01:43:52;;;;;;;13.97;8.40;;;;;;;-144.99;100.00;67352.69;5052127;28;20217;-72
2022/12/10 01:46:18;;;;;;;3.30;3.07;;;;;;;-144.99;100.00;67352.69;5052081;28;20426;-72
2022/12/10 01:48:43;;;;;;;3.93;2.90;;;;;;;-144.99;100.00;67352.69;5034428;28;20810;-72
2022/12/10 01:51:10;;;;;;;3.77;2.37;;;;;;;-144.99;100.00;67352.69;5052059;28;20472;-72
2022/12/10 01:53:35;;;;;;;9.63;4.03;;;;;;;-144.99;100.00;67352.69;5051840;28;20659;-72
2022/12/10 01:56:01;;;;;;;7.13;6.27;;;;;;;-144.99;100.00;67352.69;5051938;28;20458;-72
2022/12/10 01:58:26;;;;;;;1.83;1.73;;;;;;;-144.99;100.00;67352.69;5051882;28;20218;-72
2022/12/10 02:01:19;;;;;;;9.23;4.07;;;;;;;-144.99;100.00;67352.69;5051969;28;20175;-72
2022/12/10 02:04:02;;;;;;;0.03;0.03;;;;;;;-144.99;100.00;67352.69;5023892;28;20180;-72
2022/12/10 02:06:46;;;;;;;3.07;2.97;;;;;;;-144.99;100.00;67352.69;5051760;28;20492;-72
2022/12/10 02:09:17;;;;;;;1.10;1.10;;;;;;;-144.99;100.00;67352.69;5051641;28;20501;-72
2022/12/10 02:11:54;;;;;;;1.80;1.70;;;;;;;-144.99;100.00;67352.69;5051934;28;20417;-72
2022/12/10 02:14:54;;;;;;;27.60;8.73;;;;;;;-144.99;100.00;67352.69;5051359;28;20433;-72
2022/12/10 02:17:25;;;;;;;23.17;8.30;;;;;;;-144.99;100.00;67352.69;5051142;28;21041;-72
2022/12/10 02:20:09;;;;;;;6.07;5.27;;;;;;;-144.99;100.00;67352.69;5051704;28;20414;-71
2022/12/10 02:22:40;;;;;;;3.17;2.97;;;;;;;-144.99;100.00;67352.69;5051385;28;20416;-71
2022/12/10 02:25:08;;;;;;;2.97;1.70;;;;;;;-144.99;100.00;67352.69;5051461;28;20491;-72
2022/12/10 02:27:43;;;;;;;12.27;6.23;;;;;;;-144.99;100.00;67352.69;5051323;28;20414;-71
2022/12/10 02:30:08;;;;;;;0.37;0.37;;;;;;;-144.99;100.00;67352.69;5051714;28;20421;-72
2022/12/10 02:32:40;;;;;;;0.07;0.07;;;;;;;-144.99;100.00;67352.69;5033337;28;20444;-72
2022/12/10 02:35:13;;;;;;;3.90;3.50;;;;;;;-144.99;100.00;67352.69;5033336;28;20187;-72
2022/12/10 02:37:45;;;;;;;0.03;0.03;;;;;;;-144.99;100.00;67352.69;5051143;28;20949;-72
2022/12/10 02:40:17;;;;;;;1.13;0.93;;;;;;;-144.99;100.00;67352.69;5051252;28;20497;-72
2022/12/10 02:42:46;;;;;;;5.10;4.90;;;;;;;-144.99;100.00;67352.69;5051022;28;20442;-72
2022/12/10 02:45:12;;;;;;;20.23;6.17;;;;;;;-144.99;100.00;67352.69;5050868;28;20430;-72
2022/12/10 02:47:39;;;;;;;4.33;2.07;;;;;;;-144.99;100.00;67352.69;5050403;28;20771;-72
2022/12/10 02:50:07;;;;;;;2.83;2.07;;;;;;;-144.99;100.00;67352.69;5051021;28;20619;-72
2022/12/10 02:52:32;;;;;;;0.10;0.10;;;;;;;-144.99;100.00;67352.69;5050813;28;20457;-72
2022/12/10 02:54:58;;;;;;;4.50;4.13;;;;;;;-144.99;100.00;67352.69;5032951;28;20933;-72
2022/12/10 02:57:40;;;;;;;19.50;2.57;;;;;;;-144.99;100.00;67352.69;5050949;28;20198;-72
2022/12/10 03:00:12;;;;;;;16.43;7.17;;;;;;;-144.99;100.00;67352.69;5033733;28;20179;-72
2022/12/10 03:02:52;;;;;;;3.00;0.77;;;;;;;-144.99;100.00;67352.69;5050811;28;20410;-72
2022/12/10 03:05:24;;;;;;;2.90;2.47;;;;;;;-144.99;100.00;67352.69;5050812;28;20417;-72
2022/12/10 03:08:02;;;;;;;1.90;1.90;;;;;;;-144.99;100.00;67352.69;5050599;28;20428;-72
2022/12/10 03:10:31;;;;;;;32.47;3.97;;;;;;;-144.99;100.00;67352.69;5032914;28;20449;-72
2022/12/10 03:13:00;;;;;;;5.53;5.00;;;;;;;-144.99;100.00;67352.69;5050397;28;20531;-72
2022/12/10 03:15:30;;;;;;;0.67;0.67;;;;;;;-144.99;100.00;67352.69;5050773;28;20418;-72
2022/12/10 03:17:58;;;;;;;1.50;1.50;;;;;;;-144.99;100.00;67352.69;5050372;28;20560;-72
2022/12/10 03:20:25;;;;;;;0.00;0.00;;;;;;;-144.99;100.00;67352.69;5050985;28;20413;-72
2022/12/10 03:22:51;;;;;;;1.70;0.73;;;;;;;-144.99;100.00;67352.69;5050387;28;20422;-72
2022/12/10 03:25:24;;;;;;;0.57;0.57;;;;;;;-144.99;100.00;67352.69;5050579;28;20435;-72
2022/12/10 03:27:53;;;;;;;1.13;1.13;;;;;;;-144.99;100.00;67352.69;5050505;28;20183;-72
2022/12/10 03:30:19;;;;;;;4.17;3.87;;;;;;;-144.99;100.00;67352.69;5050697;28;20755;-72
2022/12/10 03:32:45;;;;;;;4.27;2.67;;;;;;;-144.99;100.00;67352.69;5050351;28;20432;-72
2022/12/10 03:35:12;;;;;;;2.10;2.00;;;;;;;-144.99;100.00;67352.69;5032698;28;20408;-72
2022/12/10 03:37:37;;;;;;;5.93;5.37;;;;;;;-144.99;100.00;67352.69;5050364;28;20971;-72
2022/12/10 03:40:05;;;;;;;0.10;0.10;;;;;;;-144.99;100.00;67352.69;5050510;28;20431;-72
2022/12/10 03:42:30;;;;;;;5.63;5.17;;;;;;;-144.99;100.00;67352.69;5050390;28;20175;-72
2022/12/10 03:44:55;;;;;;;6.00;3.07;;;;;;;-144.99;100.00;67352.69;5050421;28;20441;-72
2022/12/10 03:47:22;;;;;;;0.83;0.83;;;;;;;-144.99;100.00;67352.69;5050378;28;20179;-72
2022/12/10 03:49:47;;;;;;;8.40;2.77;;;;;;;-144.99;100.00;67352.69;5050427;28;20649;-72
2022/12/10 03:52:13;;;;;;;0.00;0.00;;;;;;;-144.99;100.00;67352.69;5050457;28;20430;-72
2022/12/10 03:54:38;;;;;;;6.77;5.17;;;;;;;-144.99;100.00;67352.69;5050599;28;20189;-72
2022/12/10 03:57:04;;;;;;;0.00;0.00;;;;;;;-144.99;100.00;67352.69;5035184;28;20234;-72
2022/12/10 03:59:29;;;;;;;9.43;3.23;;;;;;;-144.99;100.00;67352.69;5043466;28;20206;-72
2022/12/10 04:01:54;;;;;;;5.07;1.67;;;;;;;-144.99;100.00;67352.69;5054565;28;20182;-72
2022/12/10 04:04:20;;;;;;;2.80;2.63;;;;;;;-144.99;100.00;67352.69;5036221;28;20608;-72
2022/12/10 04:06:45;;;;;;;1.40;1.40;;;;;;;-144.99;100.00;67352.69;5054154;28;20183;-72
2022/12/10 04:09:12;;;;;;;0.00;0.00;;;;;;;-144.99;100.00;67352.69;5054650;28;20708;-72
2022/12/10 04:11:37;;;;;;;0.20;0.20;;;;;;;-144.99;100.00;67352.69;5054923;28;20182;-72
2022/12/10 04:16:46;;;;;;;1.50;1.40;;;;;;;-144.99;100.00;67352.69;5054008;28;20194;-72
2022/12/10 04:19:14;;;;;;;0.87;0.87;;;;;;;-144.99;100.00;67352.69;5036157;28;20417;-72
2022/12/10 04:27:23;;;;;;;4.03;2.07;;;;;;;-144.99;100.00;67352.69;5053876;28;20400;-72
2022/12/10 04:29:49;;;;;;;0.50;0.50;;;;;;;-144.99;100.00;67352.69;5053815;28;20512;-72
2022/12/10 04:32:15;;;;;;;1.70;1.60;;;;;;;-144.99;100.00;67352.69;5035668;28;20556;-72
2022/12/10 04:34:40;;;;;;;1.70;1.43;;;;;;;-144.99;100.00;67352.69;5053539;28;20186;-72
2022/12/10 04:37:06;;;;;;;1.97;1.87;;;;;;;-144.99;100.00;67352.69;5053565;28;20206;-72
2022/12/10 04:39:32;;;;;;;7.80;1.87;;;;;;;-144.99;100.00;67352.69;5053673;28;20254;-72
2022/12/10 04:41:59;;;;;;;8.17;4.83;;;;;;;-144.99;100.00;67352.69;5053872;28;20171;-72
2022/12/10 04:44:25;;;;;;;7.83;2.27;;;;;;;-144.99;100.00;67352.69;5035565;28;20225;-71
2022/12/10 04:46:50;;;;;;;14.40;8.37;;;;;;;-144.99;100.00;67352.69;5035441;28;20457;-72
2022/12/10 04:49:16;;;;;;;5.33;4.13;;;;;;;-144.99;100.00;67352.69;5053473;28;20179;-72
2022/12/10 04:51:41;;;;;;;0.00;0.00;;;;;;;-144.99;100.00;67352.69;5053687;28;20179;-72
2022/12/10 04:54:07;;;;;;;0.00;0.00;;;;;;;-144.99;100.00;67352.69;5035315;28;20188;-72
2022/12/10 04:56:33;;;;;;;14.23;4.90;;;;;;;-144.99;100.00;67352.69;5053228;28;20171;-72
2022/12/10 04:58:59;;;;;;;0.37;0.10;;;;;;;-144.99;100.00;67352.69;5053296;28;20179;-72
2022/12/10 05:01:25;;;;;;;2.33;2.23;;;;;;;-144.99;100.00;67352.69;5053215;28;20538;-72
2022/12/10 05:03:51;;;;;;;1.13;1.03;;;;;;;-144.99;100.00;67352.69;5035196;28;20341;-72
2022/12/10 05:06:17;;;;;;;11.73;6.23;;;;;;;-144.99;100.00;67352.69;5035070;28;20421;-73
2022/12/10 05:08:43;;;;;;;0.57;0.57;;;;;;;-144.99;100.00;67352.69;5052323;28;20639;-72
2022/12/10 05:11:18;;;;;;;2.87;2.57;;;;;;;-144.99;100.00;67352.69;5054079;28;20414;-72
2022/12/10 05:13:44;;;;;;;2.27;2.17;;;;;;;-144.99;100.00;67352.69;5057931;28;20433;-72
2022/12/10 05:16:13;;;;;;;0.00;0.00;;;;;;;-144.99;100.00;67352.69;5053270;28;20495;-72
2022/12/10 05:18:40;;;;;;;7.60;3.93;;;;;;;-144.99;100.00;67352.69;5052699;28;20572;-72
2022/12/10 05:21:09;;;;;;;1.50;1.40;;;;;;;-144.99;100.00;67352.69;5052822;28;20847;-72
2022/12/10 05:23:38;;;;;;;17.97;3.17;;;;;;;-144.99;100.00;67352.69;5052524;28;20175;-72
2022/12/10 05:26:08;;;;;;;6.57;6.30;;;;;;;-144.99;100.00;67352.69;5052638;28;20857;-73
2022/12/10 05:28:42;;;;;;;1.33;1.33;;;;;;;-144.99;100.00;67352.69;5052650;28;20417;-72
2022/12/10 05:31:13;;;;;;;0.50;0.50;;;;;;;-144.99;100.00;67352.69;5052857;28;20740;-72
2022/12/10 05:33:38;;;;;;;0.60;0.60;;;;;;;-144.99;100.00;67352.69;5052622;28;20783;-73
2022/12/10 05:36:04;;;;;;;0.00;0.00;;;;;;;-144.99;100.00;67352.69;5034607;28;20414;-72
2022/12/10 05:38:31;;;;;;;0.40;0.40;;;;;;;-144.99;100.00;67352.69;5052484;28;20214;-72
2022/12/10 05:41:09;;;;;;;1.10;1.10;;;;;;;-144.99;100.00;67352.69;5052458;28;20659;-72
2022/12/10 05:43:34;;;;;;;5.67;3.70;;;;;;;-144.99;100.00;67352.69;5052184;28;20418;-72
2022/12/10 05:46:05;;;;;;;0.23;0.23;;;;;;;-144.99;100.00;67352.69;5052300;28;20424;-73
2022/12/10 05:48:30;;;;;;;0.73;0.73;;;;;;;-144.99;100.00;67352.69;5052601;28;20168;-72
2022/12/10 05:50:56;;;;;;;0.73;0.73;;;;;;;-144.99;100.00;67352.69;5052515;28;20422;-72
2022/12/10 05:53:22;;;;;;;7.63;3.50;;;;;;;-144.99;100.00;67352.69;5052011;28;20175;-72
2022/12/10 05:55:47;;;;;;;0.00;0.00;;;;;;;-144.99;100.00;67352.69;5052181;28;20184;-73
2022/12/10 05:58:13;;;;;;;17.60;8.80;;;;;;;-144.99;100.00;67352.69;5052002;28;20203;-72
2022/12/10 06:00:40;;;;;;;12.30;3.57;;;;;;;-144.99;100.00;67352.69;5034226;28;20186;-72
2022/12/10 06:03:05;;;;;;;17.57;8.10;;;;;;;-144.99;100.00;67352.69;5051779;28;20667;-72
2022/12/10 06:05:36;;;;;;;0.67;0.67;;;;;;;-144.99;100.00;67352.69;5051794;28;20501;-72
2022/12/10 06:08:02;;;;;;;0.00;0.00;;;;;;;-144.99;100.00;67352.69;5051959;28;20535;-72
2022/12/10 06:10:27;;;;;;;2.67;1.93;;;;;;;-144.99;100.00;67352.69;5052028;28;20422;-73
2022/12/10 06:12:52;;;;;;;1.00;1.00;;;;;;;-144.99;100.00;67352.69;5033598;28;20190;-72
2022/12/10 06:15:18;;;;;;;0.50;0.50;;;;;;;-144.99;100.00;67352.69;5051721;28;20633;-72
2022/12/10 06:17:43;;;;;;;1.40;1.40;;;;;;;-144.99;100.00;67352.69;5051329;28;20206;-73
2022/12/10 06:20:09;;;;;;;1.33;0.63;;;;;;;-144.99;100.00;67352.69;5051481;28;20172;-72
2022/12/10 06:22:34;;;;;;;2.77;2.63;;;;;;;-144.99;100.00;67352.69;5033564;28;20183;-72
2022/12/10 06:24:59;;;;;;;0.67;0.67;;;;;;;-144.99;100.00;67352.69;5033764;28;20547;-72
2022/12/10 06:27:25;;;;;;;0.23;0.23;;;;;;;-144.99;100.00;67352.69;5051758;28;20525;-72
2022/12/10 06:29:50;;;;;;;0.47;0.47;;;;;;;-144.99;100.00;67352.69;5051558;28;20233;-72
2022/12/10 06:32:15;;;;;;;1.80;1.50;;;;;;;-144.99;100.00;67352.69;5033466;28;20180;-72
2022/12/10 06:34:41;;;;;;;2.30;2.20;;;;;;;-144.99;100.00;67352.69;5051196;28;20175;-73
2022/12/10 06:37:06;;;;;;;1.07;1.00;;;;;;;-144.99;100.00;67352.69;5051510;28;20210;-72
2022/12/10 06:39:31;;;;;;;8.63;3.13;;;;;;;-144.99;100.00;67352.69;5033440;28;20634;-72
2022/12/10 06:41:56;;;;;;;0.00;0.00;;;;;;;-144.99;100.00;67352.69;5051383;28;20179;-72
2022/12/10 06:44:22;;;;;;;0.33;0.33;;;;;;;-144.99;100.00;67352.69;5050936;28;20175;-72
2022/12/10 06:46:47;;;;;;;3.20;3.03;;;;;;;-144.99;100.00;67352.69;5050956;28;20180;-72
2022/12/10 06:49:12;;;;;;;10.50;2.70;;;;;;;-144.99;100.00;67352.69;5051405;28;20183;-71
2022/12/10 06:51:38;;;;;;;4.60;2.87;;;;;;;-144.99;100.00;67352.69;5051027;28;20175;-72
2022/12/10 06:54:04;;;;;;;1.67;1.57;;;;;;;-144.99;100.00;67352.69;5050861;28;20175;-72
2022/12/10 06:56:29;;;;;;;24.70;7.03;;;;;;;-144.99;100.00;67352.69;5051186;28;20224;-72
2022/12/10 06:58:54;;;;;;;2.00;1.90;;;;;;;-144.99;100.00;67352.69;5050945;28;20802;-73
2022/12/10 07:01:25;;;;;;;5.37;1.80;;;;;;;-144.99;100.00;67352.69;5050944;28;20171;-72
2022/12/10 07:03:55;;;;;;;3.57;3.30;;;;;;;-144.99;100.00;67352.69;5050730;28;20201;-72
2022/12/10 07:06:23;;;;;;;3.17;2.90;;;;;;;-144.99;100.00;67352.69;5050825;28;20450;-72
2022/12/10 07:08:49;;;;;;;4.33;4.03;;;;;;;-144.99;100.00;67352.69;5032941;28;20461;-72
2022/12/10 07:11:17;;;;;;;0.20;0.20;;;;;;;-144.99;100.00;67352.69;5050361;28;20413;-72
2022/12/10 07:13:43;;;;;;;1.60;1.50;;;;;;;-144.99;100.00;67352.69;5050402;28;20430;-71
2022/12/10 07:16:15;;;;;;;4.53;4.23;;;;;;;-144.99;100.00;67352.69;5032681;28;20421;-72
2022/12/10 07:18:41;;;;;;;3.33;1.97;;;;;;;-144.99;100.00;67352.69;5050749;28;20187;-72
2022/12/10 07:21:21;;;;;;;1.90;1.80;;;;;;;-144.99;100.00;67352.69;5032832;28;20433;-74
2022/12/10 07:23:47;;;;;;;14.37;5.87;;;;;;;-144.99;100.00;67352.69;5050733;28;20175;-73
2022/12/10 07:26:13;;;;;;;8.43;4.00;;;;;;;-144.99;100.00;67352.69;5050500;28;20487;-73
2022/12/10 07:28:38;;;;;;;2.00;1.90;;;;;;;-144.99;100.00;67352.69;5032692;28;20171;-72
2022/12/10 07:31:06;;;;;;;6.07;3.43;;;;;;;-144.99;100.00;67352.69;5032472;28;20175;-73
2022/12/10 07:33:31;;;;;;;0.77;0.77;;;;;;;-144.99;100.00;67352.69;5055865;28;20170;-73
2022/12/10 07:35:57;;;;;;;0.93;0.93;;;;;;;-144.99;100.00;67352.69;5057433;28;20467;-73
2022/12/10 07:38:23;;;;;;;1.20;1.20;;;;;;;-144.99;100.00;67352.69;5057312;28;20662;-73
2022/12/10 07:40:49;;;;;;;0.03;0.03;;;;;;;-144.99;100.00;67352.69;5053462;28;20573;-73
2022/12/10 07:43:15;;;;;;;1.60;1.60;;;;;;;-144.99;100.00;67352.69;5055615;28;20836;-73
2022/12/10 07:45:40;;;;;;;0.10;0.10;;;;;;;-144.99;100.00;67352.69;5057538;28;20455;-73
2022/12/10 07:48:05;;;;;;;1.20;0.83;;;;;;;-144.99;100.00;67352.69;5057504;28;20305;-73
2022/12/10 07:50:30;;;;;;;1.23;1.13;;;;;;;-144.99;100.00;67352.69;5057108;28;20171;-73
2022/12/10 07:52:56;;;;;;;0.00;0.00;;;;;;;-144.99;100.00;67352.69;5056804;28;20178;-73
2022/12/10 07:55:21;;;;;;;2.37;2.27;;;;;;;-144.99;100.00;67352.69;5057150;28;20186;-73
2022/12/10 07:57:46;;;;;;;6.23;3.63;;;;;;;-144.99;100.00;67352.69;5056917;28;20340;-73
2022/12/10 08:00:12;;;;;;;8.37;3.33;;;;;;;-144.99;100.00;67352.69;5057058;28;20171;-72
2022/12/10 08:02:37;;;;;;;3.07;2.23;;;;;;;-144.99;100.00;67352.69;5056788;28;20171;-72
2022/12/10 08:05:03;;;;;;;0.87;0.87;;;;;;;-144.99;100.00;67352.69;5056959;28;20654;-72
2022/12/10 08:07:28;;;;;;;1.00;1.00;;;;;;;-144.99;100.00;67352.69;5055588;28;20183;-72
2022/12/10 08:09:54;;;;;;;4.10;3.67;;;;;;;-144.99;100.00;67352.69;5056640;28;20542;-77
2022/12/10 08:12:19;;;;;;;1.57;1.37;;;;;;;-144.99;100.00;67352.69;5056485;28;20171;-76
2022/12/10 08:14:45;;;;;;;9.40;4.37;;;;;;;-144.99;100.00;67352.69;5057362;28;20167;-77
2022/12/10 08:17:13;;;;;;;2.20;1.60;;;;;;;-144.99;100.00;67352.69;5055404;28;20191;-76
2022/12/10 08:19:38;;;;;;;13.93;7.23;;;;;;;-144.99;100.00;67352.69;5056882;28;20190;-77
2022/12/10 08:22:03;;;;;;;17.70;6.03;;;;;;;-144.99;100.00;67352.69;5057183;28;20413;-75
2022/12/10 08:24:29;;;;;;;1.90;1.87;;;;;;;-144.99;100.00;67352.69;5055323;28;20258;-76
2022/12/10 08:26:54;;;;;;;16.23;4.97;;;;;;;-144.99;100.00;67352.69;5056761;28;20543;-76
2022/12/10 08:29:19;;;;;;;1.40;1.30;;;;;;;-144.99;100.00;67352.69;5056792;28;20198;-77
2022/12/10 08:31:45;;;;;;;1.50;1.40;;;;;;;-144.99;100.00;67352.69;5056840;28;20202;-77
2022/12/10 08:34:15;;;;;;;5.23;4.90;;;;;;;-144.99;100.00;67352.69;5055305;28;20163;-79
2022/12/10 08:36:41;;;;;;;6.33;1.80;;;;;;;-144.99;100.00;67352.69;5056609;28;20206;-79
2022/12/10 08:39:07;;;;;;;7.53;2.23;;;;;;;-144.99;100.00;67352.69;5030797;28;20469;-77
2022/12/10 08:41:32;;;;;;;4.20;3.13;;;;;;;-144.99;100.00;67352.69;5036514;28;20229;-78
2022/12/10 08:43:57;;;;;;;1.60;1.50;;;;;;;-144.99;100.00;67352.69;5034970;28;20176;-79
2022/12/10 08:46:24;;;;;;;3.13;2.93;;;;;;;-144.99;100.00;67352.69;5033538;28;20229;-78
2022/12/10 08:48:50;;;;;;;0.40;0.40;;;;;;;-144.99;100.00;67352.69;5033455;28;20176;-78
2022/12/10 08:51:18;;;;;;;13.17;5.77;;;;;;;-144.99;100.00;67352.69;5033484;28;20419;-79
2022/12/10 08:53:44;;;;;;;1.50;1.50;;;;;;;-144.99;100.00;67352.69;5033323;28;20172;-78
2022/12/10 08:56:09;;;;;;;1.43;1.37;;;;;;;-144.99;100.00;67352.69;5033377;28;20403;-76
2022/12/10 08:58:37;;;;;;;6.13;5.80;;;;;;;-144.99;100.00;67352.69;5033540;28;20214;-77
2022/12/10 09:01:10;;;;;;;4.90;1.43;;;;;;;-144.99;100.00;67352.69;5033385;28;20632;-77
2022/12/10 09:03:36;;;;;;;6.33;2.83;;;;;;;-144.99;100.00;67352.69;5033386;28;20418;-76
2022/12/10 09:06:03;;;;;;;2.60;2.50;;;;;;;-144.99;100.00;67352.69;5033130;28;20481;-77
2022/12/10 09:08:29;;;;;;;7.63;1.20;;;;;;;-144.99;100.00;67352.69;5033190;28;20180;-75
2022/12/10 09:10:54;;;;;;;4.50;4.20;;;;;;;-144.99;100.00;67352.69;5032716;28;20429;-76
2022/12/10 09:13:19;;;;;;;1.93;1.83;;;;;;;-144.99;100.00;67352.69;5032453;28;20655;-76
2022/12/10 09:15:52;;;;;;;9.97;9.07;;;;;;;-144.99;100.00;67352.69;5033211;28;20176;-76
2022/12/10 09:18:18;;;;;;;15.67;6.50;;;;;;;-144.99;100.00;67352.69;5032658;28;20206;-75
2022/12/10 09:20:43;;;;;;;1.03;0.60;;;;;;;-144.99;100.00;67352.69;5032622;28;20422;-75
2022/12/10 09:23:09;;;;;;;17.07;3.50;;;;;;;-144.99;100.00;67352.69;5032504;28;20175;-77
2022/12/10 09:25:34;;;;;;;5.03;4.50;;;;;;;-144.99;100.00;67352.69;5032588;28;20175;-76
2022/12/10 09:27:59;;;;;;;1.57;1.47;;;;;;;-144.99;100.00;67352.69;5032690;28;20180;-76
2022/12/10 09:30:24;;;;;;;4.83;4.47;;;;;;;-144.99;100.00;67352.69;5032701;28;20171;-76
2022/12/10 09:32:50;;;;;;;9.57;9.03;;;;;;;-144.99;100.00;67352.69;5032574;28;20230;-76
2022/12/10 09:35:15;;;;;;;7.27;3.90;;;;;;;-144.99;100.00;67352.69;5032487;28;20229;-76
2022/12/10 09:37:40;;;;;;;0.20;0.20;;;;;;;-144.99;100.00;67352.69;5032337;28;20204;-76
2022/12/10 09:40:06;;;;;;;0.00;0.00;;;;;;;-144.99;100.00;67352.69;5032413;28;20187;-75
2022/12/10 09:42:46;;;;;;;1.27;1.13;;;;;;;-144.99;100.00;67352.69;5061315;28;20244;-76
2022/12/10 09:45:21;;;;;;;0.43;0.43;;;;;;;-144.99;100.00;67352.69;5072198;28;20214;-76
2022/12/10 09:48:15;;;;;;;2.00;1.87;;;;;;;-144.99;100.00;67352.69;5054082;28;20433;-76
2022/12/10 09:51:17;;;;;;;0.73;0.73;;;;;;;-144.99;100.00;67352.69;5032214;28;20407;-76
2022/12/10 09:53:44;;;;;;;1.40;1.33;;;;;;;-144.99;100.00;67352.69;5031963;28;20411;-76
2022/12/10 09:56:34;;;;;;;2.40;2.20;;;;;;;-144.99;100.00;67352.69;5031631;28;20415;-77
2022/12/10 09:59:10;;;;;;;7.93;1.23;;;;;;;-144.99;100.00;67352.69;5031958;28;20632;-76
2022/12/10 10:01:37;;;;;;;0.97;0.97;;;;;;;-144.99;100.00;67352.69;5013798;28;20934;-77
2022/12/10 10:04:03;;;;;;;0.00;0.00;;;;;;;-144.99;100.00;67352.69;5031345;28;20434;-76
2022/12/10 10:06:29;;;;;;;1.67;1.07;;;;;;;-144.99;100.00;67352.69;5031523;28;20893;-75
2022/12/10 10:08:58;;;;;;;0.00;0.00;;;;;;;-144.99;100.00;67352.69;5031855;28;20421;-74
2022/12/10 10:11:29;;;;;;;1.23;0.97;;;;;;;-144.99;100.00;67352.69;5031525;28;20273;-76
2022/12/10 10:13:59;;;;;;;6.93;3.43;;;;;;;-144.99;100.00;67352.69;5013126;28;20766;-76
2022/12/10 10:16:31;;;;;;;2.87;2.67;;;;;;;-144.99;100.00;67352.69;5031420;28;20824;-76
2022/12/10 10:19:02;;;;;;;2.50;2.07;;;;;;;-144.99;100.00;67352.69;5031454;28;20443;-76
2022/12/10 10:21:38;;;;;;;3.00;2.00;;;;;;;-144.99;100.00;67352.69;5031349;28;20422;-76
2022/12/10 10:24:06;;;;;;;0.27;0.27;;;;;;;-144.99;100.00;67352.69;5031261;28;20512;-76
2022/12/10 10:26:32;;;;;;;0.27;0.27;;;;;;;-144.99;100.00;67352.69;5031585;28;20426;-75
2022/12/10 10:29:06;;;;;;;0.00;0.00;;;;;;;-144.99;100.00;67352.69;5031342;28;20434;-75
2022/12/10 10:31:33;;;;;;;13.43;5.90;;;;;;;-144.99;100.00;67352.69;5013538;28;20836;-77
2022/12/10 10:34:21;;;;;;;7.83;1.83;;;;;;;-144.99;100.00;67352.69;5031193;28;20422;-76
2022/12/10 10:36:47;;;;;;;0.17;0.17;;;;;;;-144.99;100.00;67352.69;5037761;28;20524;-76
2022/12/10 10:39:15;;;;;;;1.20;0.43;;;;;;;-144.99;100.00;67352.69;5039117;28;20433;-76
2022/12/10 10:41:41;;;;;;;0.00;0.00;;;;;;;-144.99;100.00;67352.69;5071500;28;20421;-75
2022/12/10 10:44:16;;;;;;;1.23;1.13;;;;;;;-144.99;100.00;67352.69;5070944;28;20753;-77
2022/12/10 10:46:44;;;;;;;0.83;0.83;;;;;;;-144.99;100.00;67352.69;5070683;28;20194;-76
2022/12/10 10:49:27;;;;;;;0.00;0.00;;;;;;;-144.99;100.00;67352.69;5053017;28;20772;-76
2022/12/10 10:51:57;;;;;;;1.53;1.47;;;;;;;-144.99;100.00;67352.69;5070669;28;20511;-82
2022/12/10 10:54:43;;;;;;;0.90;0.87;;;;;;;-144.99;100.00;67352.69;5070680;28;20558;-83
2022/12/10 10:57:33;;;;;;;5.53;3.77;;;;;;;-144.99;100.00;67352.69;5070838;28;20471;-76
2022/12/10 11:00:22;;;;;;;5.47;4.63;;;;;;;-144.99;100.00;67352.69;5070436;28;20416;-80
2022/12/10 11:02:48;;;;;;;0.87;0.87;;;;;;;-144.99;100.00;67352.69;5059678;28;20461;-77
2022/12/10 11:05:25;;;;;;;0.60;0.60;;;;;;;-144.99;100.00;67352.69;5070458;28;20933;-79
2022/12/10 11:07:59;;;;;;;9.03;5.77;;;;;;;-144.99;100.00;67352.69;5069596;28;20495;-82
2022/12/10 11:10:25;;;;;;;0.33;0.30;;;;;;;-144.99;100.00;67352.69;5070333;28;20420;-88
2022/12/10 11:13:18;;;;;;;1.67;1.67;;;;;;;-144.99;100.00;67352.69;5069940;28;20490;-80
2022/12/10 11:15:44;;;;;;;0.00;0.00;;;;;;;-144.99;100.00;67352.69;5070494;28;20177;-82
2022/12/10 11:18:28;;;;;;;0.00;0.00;;;;;;;-144.99;100.00;67352.69;5053112;28;20831;-76
2022/12/10 11:21:11;;;;;;;0.30;0.30;;;;;;;-144.99;100.00;67352.69;5049111;28;20191;-76
2022/12/10 11:23:49;;;;;;;0.37;0.37;;;;;;;-144.99;100.00;67352.69;5050106;28;20483;-76